Time;durP1;ratioP1;P1;durP2;ratioP2;P2;SDS_P1;SDS_P2;PMS_P1;PMS_P2;Temp;Humidity;BMP_temperature;BMP_pressure;BME280_temperature;BME280_humidity;BME280_pressure;Samples;Min_cycle;Max_cycle;Signal;HPM_P1;HPM_P2
2021/11/06 00:01:34;;;;;;;20.57;16.47;;;5.60;99.90;;;;;;5012176;28;20277;-70
2021/11/06 00:03:59;;;;;;;17.93;14.93;;;5.60;99.90;;;;;;5012220;28;20179;-71
2021/11/06 00:06:25;;;;;;;21.90;14.40;;;5.60;99.90;;;;;;5012236;28;20245;-70
2021/11/06 00:08:50;;;;;;;17.67;14.67;;;5.60;99.90;;;;;;5010492;28;20206;-72
2021/11/06 00:11:16;;;;;;;14.40;12.80;;;5.60;99.90;;;;;;5012020;28;20631;-70
2021/11/06 00:13:41;;;;;;;15.70;13.97;;;5.50;99.90;;;;;;5012149;28;20230;-70
2021/11/06 00:16:07;;;;;;;16.03;12.80;;;5.40;99.90;;;;;;5012100;28;20229;-70
2021/11/06 00:18:33;;;;;;;16.33;14.30;;;5.40;99.90;;;;;;5010502;28;20218;-71
2021/11/06 00:20:58;;;;;;;15.57;12.60;;;5.40;99.90;;;;;;5012104;28;20205;-70
2021/11/06 00:23:24;;;;;;;19.77;13.23;;;5.40;99.90;;;;;;5011974;28;20197;-72
2021/11/06 00:25:49;;;;;;;18.50;14.17;;;5.40;99.90;;;;;;5011995;28;20868;-70
2021/11/06 00:28:15;;;;;;;16.20;13.17;;;5.40;99.90;;;;;;5011705;28;20175;-70
2021/11/06 00:30:40;;;;;;;18.67;13.83;;;5.30;99.90;;;;;;5013279;28;20272;-71
2021/11/06 00:33:06;;;;;;;16.47;12.70;;;5.20;99.90;;;;;;5015867;28;20190;-70
2021/11/06 00:35:32;;;;;;;20.30;15.50;;;5.20;99.90;;;;;;5015849;28;20227;-70
2021/11/06 00:37:57;;;;;;;17.80;14.73;;;5.20;99.90;;;;;;5015413;28;20179;-71
2021/11/06 00:40:23;;;;;;;17.37;13.63;;;5.20;99.90;;;;;;5015606;28;20186;-70
2021/11/06 00:42:48;;;;;;;16.40;13.23;;;5.20;99.90;;;;;;5015676;28;20163;-70
2021/11/06 00:45:15;;;;;;;17.43;14.27;;;5.20;99.90;;;;;;5015585;28;20603;-71
2021/11/06 00:47:41;;;;;;;14.57;12.97;;;5.20;99.90;;;;;;5015282;28;20583;-71
2021/11/06 00:50:09;;;;;;;17.00;12.60;;;5.10;99.90;;;;;;5015405;28;20507;-71
2021/11/06 00:52:35;;;;;;;17.87;13.70;;;5.10;99.90;;;;;;5015360;28;20436;-71
2021/11/06 00:55:01;;;;;;;16.60;13.03;;;5.10;99.90;;;;;;5015330;28;20508;-71
2021/11/06 00:57:27;;;;;;;18.10;13.00;;;5.10;99.90;;;;;;5015121;28;21023;-71
2021/11/06 00:59:53;;;;;;;18.00;14.57;;;5.00;99.90;;;;;;5015368;28;20671;-70
2021/11/06 01:02:18;;;;;;;18.30;13.60;;;5.00;99.90;;;;;;5015232;28;20433;-69
2021/11/06 01:04:44;;;;;;;15.13;12.53;;;5.00;99.90;;;;;;5015233;28;20430;-70
2021/11/06 01:07:10;;;;;;;20.23;13.07;;;4.90;99.90;;;;;;5015044;28;20186;-72
2021/11/06 01:09:35;;;;;;;15.83;13.13;;;4.90;99.90;;;;;;5014867;28;20277;-70
2021/11/06 01:12:01;;;;;;;19.70;15.40;;;4.80;99.90;;;;;;5015050;28;20187;-70
2021/11/06 01:14:27;;;;;;;18.53;15.43;;;4.70;99.90;;;;;;5015084;28;20167;-72
2021/11/06 01:16:52;;;;;;;22.03;16.20;;;4.70;99.90;;;;;;5015152;28;20168;-70
2021/11/06 01:19:18;;;;;;;18.90;15.80;;;4.70;99.90;;;;;;5014722;28;20789;-70
2021/11/06 01:21:44;;;;;;;27.73;16.13;;;4.60;99.90;;;;;;5014842;28;20285;-70
2021/11/06 01:24:09;;;;;;;16.90;14.00;;;4.60;99.90;;;;;;5014861;28;20171;-71
2021/11/06 01:26:35;;;;;;;18.30;14.03;;;4.60;99.90;;;;;;5014895;28;20418;-71
2021/11/06 01:29:02;;;;;;;20.80;16.00;;;4.60;99.90;;;;;;5014482;28;20234;-70
2021/11/06 01:31:28;;;;;;;19.20;15.13;;;4.60;99.90;;;;;;5014561;28;20536;-71
2021/11/06 01:33:53;;;;;;;17.77;14.87;;;4.70;99.90;;;;;;5014735;28;20874;-70
2021/11/06 01:36:19;;;;;;;18.37;16.47;;;4.60;99.90;;;;;;5014629;28;20462;-70
2021/11/06 01:38:45;;;;;;;16.83;14.90;;;4.70;99.90;;;;;;5014288;28;20649;-72
2021/11/06 01:41:12;;;;;;;17.47;13.30;;;4.60;99.90;;;;;;5014552;28;20884;-70
2021/11/06 01:43:38;;;;;;;18.03;13.93;;;4.70;99.90;;;;;;5013882;28;20509;-71
2021/11/06 01:46:05;;;;;;;19.30;15.90;;;4.60;99.90;;;;;;5014542;28;20476;-71
2021/11/06 01:48:31;;;;;;;20.40;14.83;;;4.60;99.90;;;;;;5014101;28;20429;-70
2021/11/06 01:50:58;;;;;;;19.07;14.00;;;4.50;99.90;;;;;;5014363;28;20829;-70
2021/11/06 01:53:24;;;;;;;17.10;13.87;;;4.50;99.90;;;;;;5014301;28;20241;-71
2021/11/06 01:55:52;;;;;;;18.23;14.00;;;4.50;99.90;;;;;;5014290;28;20839;-71
2021/11/06 01:58:20;;;;;;;16.20;14.40;;;4.50;99.90;;;;;;5014034;28;20418;-70
2021/11/06 02:00:45;;;;;;;17.43;13.90;;;4.40;99.90;;;;;;5014226;28;20801;-69
2021/11/06 02:03:13;;;;;;;17.40;14.27;;;4.40;99.90;;;;;;5014509;28;20429;-70
2021/11/06 02:05:39;;;;;;;14.87;13.30;;;4.40;99.90;;;;;;5014115;28;20178;-71
2021/11/06 02:08:05;;;;;;;16.57;13.53;;;4.40;99.90;;;;;;5013718;28;20788;-70
2021/11/06 02:10:32;;;;;;;18.77;14.60;;;4.30;99.90;;;;;;5014085;28;20238;-70
2021/11/06 02:12:58;;;;;;;21.10;14.20;;;4.30;99.90;;;;;;5029240;28;20425;-70
2021/11/06 02:15:24;;;;;;;21.20;15.33;;;4.40;99.90;;;;;;5013941;28;20780;-72
2021/11/06 02:17:50;;;;;;;21.37;15.30;;;4.40;99.90;;;;;;5013625;28;20421;-70
2021/11/06 02:20:17;;;;;;;20.50;14.27;;;4.40;99.90;;;;;;5013744;28;20171;-70
2021/11/06 02:22:43;;;;;;;17.90;13.60;;;4.30;99.90;;;;;;5013739;28;20797;-70
2021/11/06 02:25:10;;;;;;;21.20;15.33;;;4.30;99.90;;;;;;5012480;28;20418;-71
2021/11/06 02:27:36;;;;;;;19.40;15.20;;;4.20;99.90;;;;;;5028713;28;20533;-70
2021/11/06 02:30:04;;;;;;;18.80;15.10;;;4.20;99.90;;;;;;5013629;28;20573;-71
2021/11/06 02:32:29;;;;;;;19.97;14.67;;;4.20;99.90;;;;;;5013323;28;20469;-71
2021/11/06 02:34:55;;;;;;;19.77;15.53;;;4.10;99.90;;;;;;5012226;28;20422;-70
2021/11/06 02:37:20;;;;;;;20.83;15.40;;;4.20;99.90;;;;;;5013202;28;20166;-70
2021/11/06 02:39:46;;;;;;;19.07;14.90;;;4.20;99.90;;;;;;5013426;28;20178;-72
2021/11/06 02:42:13;;;;;;;16.73;13.97;;;4.20;99.90;;;;;;5013471;28;20277;-70
2021/11/06 02:44:39;;;;;;;18.27;15.00;;;4.10;99.90;;;;;;5013538;28;20167;-70
2021/11/06 02:47:05;;;;;;;20.40;14.70;;;4.10;99.90;;;;;;5013344;28;20505;-70
2021/11/06 02:49:31;;;;;;;15.87;13.90;;;4.10;99.90;;;;;;5011652;28;20199;-72
2021/11/06 02:51:56;;;;;;;21.03;15.23;;;4.00;99.90;;;;;;5013180;28;20447;-70
2021/11/06 02:54:22;;;;;;;23.30;17.17;;;4.00;99.90;;;;;;5012266;28;20175;-70
2021/11/06 02:56:48;;;;;;;22.87;16.80;;;4.00;99.90;;;;;;5013227;28;20209;-71
2021/11/06 02:59:13;;;;;;;22.80;16.97;;;4.00;99.90;;;;;;5012905;28;20175;-70
2021/11/06 03:01:39;;;;;;;22.33;16.90;;;4.00;99.90;;;;;;5013056;28;20244;-70
2021/11/06 03:04:09;;;;;;;22.23;16.23;;;4.00;99.90;;;;;;5013003;28;20174;-70
2021/11/06 03:06:35;;;;;;;23.73;16.53;;;4.00;99.90;;;;;;5013332;28;20657;-70
2021/11/06 03:09:03;;;;;;;20.77;15.07;;;4.00;99.90;;;;;;5012697;28;20480;-70
2021/11/06 03:11:30;;;;;;;21.77;16.23;;;4.00;99.90;;;;;;5012871;28;20438;-70
2021/11/06 03:13:57;;;;;;;23.03;16.03;;;3.80;99.90;;;;;;5013010;28;20414;-70
2021/11/06 03:16:23;;;;;;;19.17;15.80;;;3.80;99.90;;;;;;5012931;28;20417;-70
2021/11/06 03:18:48;;;;;;;18.40;14.10;;;3.70;99.90;;;;;;5012472;28;20414;-70
2021/11/06 03:21:17;;;;;;;21.70;15.97;;;3.80;99.90;;;;;;5012705;28;20230;-70
2021/11/06 03:23:43;;;;;;;22.33;16.40;;;3.80;99.90;;;;;;5012754;28;20572;-70
2021/11/06 03:26:08;;;;;;;23.90;18.20;;;3.90;99.90;;;;;;5012650;28;20425;-70
2021/11/06 03:28:34;;;;;;;15.43;13.83;;;3.90;99.90;;;;;;5012308;28;20179;-69
2021/11/06 03:30:59;;;;;;;16.77;13.97;;;3.80;99.90;;;;;;5012489;28;20278;-70
2021/11/06 03:33:25;;;;;;;20.90;15.27;;;3.80;99.90;;;;;;5012426;28;20637;-70
2021/11/06 03:35:50;;;;;;;19.80;16.47;;;3.80;99.90;;;;;;5012591;28;20637;-70
2021/11/06 03:38:16;;;;;;;20.17;16.27;;;3.80;99.90;;;;;;5012235;28;20171;-70
2021/11/06 03:40:41;;;;;;;18.33;15.40;;;3.70;99.90;;;;;;5012491;28;20202;-71
2021/11/06 03:43:07;;;;;;;19.63;16.23;;;3.60;99.90;;;;;;5012481;28;20194;-70
2021/11/06 03:45:33;;;;;;;22.50;16.63;;;3.50;99.90;;;;;;5012492;28;20170;-70
2021/11/06 03:47:58;;;;;;;24.83;17.00;;;3.50;99.90;;;;;;5011982;28;20182;-70
2021/11/06 03:50:24;;;;;;;24.13;17.67;;;3.50;99.90;;;;;;5012347;28;20548;-71
2021/11/06 03:52:49;;;;;;;35.60;17.00;;;3.40;99.90;;;;;;5012360;28;20301;-70
2021/11/06 03:55:15;;;;;;;41.90;16.63;;;3.40;99.90;;;;;;5012335;28;20660;-70
2021/11/06 03:57:41;;;;;;;26.10;17.43;;;3.30;99.90;;;;;;5011995;28;20170;-71
2021/11/06 04:00:09;;;;;;;34.73;17.40;;;3.20;99.90;;;;;;5012291;28;20179;-69
2021/11/06 04:02:35;;;;;;;44.13;19.00;;;3.10;99.90;;;;;;5012089;28;20194;-70
2021/11/06 04:05:00;;;;;;;39.30;18.27;;;3.10;99.90;;;;;;5012629;28;20492;-70
2021/11/06 04:07:26;;;;;;;51.17;17.20;;;3.10;99.90;;;;;;5016053;28;20202;-70
2021/11/06 04:09:52;;;;;;;34.13;17.00;;;3.20;99.90;;;;;;5016245;28;20207;-70
2021/11/06 04:12:18;;;;;;;56.20;18.17;;;3.20;99.90;;;;;;5016177;28;20495;-70
2021/11/06 04:14:43;;;;;;;25.40;16.63;;;3.20;99.90;;;;;;5016238;28;20209;-70
2021/11/06 04:17:09;;;;;;;30.23;15.77;;;3.20;99.90;;;;;;5015963;28;20207;-70
2021/11/06 04:19:34;;;;;;;26.47;15.13;;;3.20;99.90;;;;;;5016056;28;20182;-70
2021/11/06 04:22:01;;;;;;;20.27;14.27;;;3.00;99.90;;;;;;5016062;28;20190;-70
2021/11/06 04:24:26;;;;;;;24.93;14.33;;;2.80;99.90;;;;;;5016025;28;20178;-70
2021/11/06 04:26:52;;;;;;;20.47;13.70;;;2.80;99.90;;;;;;5015984;28;20414;-70
2021/11/06 04:29:18;;;;;;;20.67;15.53;;;2.90;99.90;;;;;;5015712;28;20739;-71
2021/11/06 04:31:43;;;;;;;16.40;14.03;;;2.90;99.90;;;;;;5016087;28;20222;-70
2021/11/06 04:34:09;;;;;;;17.93;14.30;;;3.00;99.90;;;;;;5015822;28;20175;-69
2021/11/06 04:36:34;;;;;;;19.23;12.67;;;3.10;99.90;;;;;;5015776;28;20167;-71
2021/11/06 04:39:00;;;;;;;18.37;12.70;;;3.10;99.90;;;;;;5015526;28;20234;-70
2021/11/06 04:41:25;;;;;;;23.80;13.07;;;3.20;99.90;;;;;;5015686;28;20572;-70
2021/11/06 04:43:51;;;;;;;21.70;14.33;;;3.20;99.90;;;;;;5015660;28;20659;-70
2021/11/06 04:46:17;;;;;;;24.40;14.00;;;3.20;99.90;;;;;;5015599;28;20171;-71
2021/11/06 04:48:42;;;;;;;45.50;16.30;;;3.20;99.90;;;;;;5015271;28;20832;-70
2021/11/06 04:51:08;;;;;;;53.33;15.77;;;3.20;99.90;;;;;;5015510;28;20652;-70
2021/11/06 04:53:34;;;;;;;35.33;13.33;;;3.20;99.90;;;;;;5014200;28;20298;-70
2021/11/06 04:55:59;;;;;;;97.13;16.07;;;3.20;99.90;;;;;;5015443;28;20171;-69
2021/11/06 04:58:25;;;;;;;47.97;14.80;;;3.20;99.90;;;;;;5015162;28;20163;-70
2021/11/06 05:00:51;;;;;;;36.00;14.80;;;3.10;99.90;;;;;;5015179;28;20728;-70
2021/11/06 05:03:17;;;;;;;13.60;11.60;;;3.00;99.90;;;;;;5015305;28;20175;-70
2021/11/06 05:05:42;;;;;;;13.80;11.13;;;3.00;99.90;;;;;;5015318;28;20500;-70
2021/11/06 05:08:08;;;;;;;13.50;11.57;;;3.00;99.90;;;;;;5014996;28;20276;-70
2021/11/06 05:10:34;;;;;;;11.30;9.80;;;3.00;99.90;;;;;;5015118;28;20217;-70
2021/11/06 05:12:59;;;;;;;10.73;9.63;;;2.90;99.90;;;;;;5015194;28;20167;-71
2021/11/06 05:15:25;;;;;;;11.93;10.70;;;2.90;99.90;;;;;;5015104;28;20197;-70
2021/11/06 05:17:53;;;;;;;12.27;10.30;;;2.90;99.90;;;;;;5013634;28;20640;-70
2021/11/06 05:20:19;;;;;;;12.33;10.33;;;2.80;99.90;;;;;;5014993;28;20582;-70
2021/11/06 05:22:45;;;;;;;20.00;11.90;;;2.80;99.90;;;;;;5015005;28;20421;-70
2021/11/06 05:25:12;;;;;;;14.17;11.43;;;2.80;99.90;;;;;;5014956;28;20454;-71
2021/11/06 05:27:38;;;;;;;16.23;12.60;;;2.70;99.90;;;;;;5014657;28;20190;-70
2021/11/06 05:30:05;;;;;;;13.77;12.37;;;2.60;99.90;;;;;;5014688;28;20862;-70
2021/11/06 05:32:32;;;;;;;14.70;10.60;;;2.60;99.90;;;;;;5014576;28;20458;-71
2021/11/06 05:34:58;;;;;;;13.73;11.70;;;2.50;99.90;;;;;;5014770;28;20410;-70
2021/11/06 05:37:23;;;;;;;14.33;11.70;;;2.50;99.90;;;;;;5014384;28;20953;-71
2021/11/06 05:39:49;;;;;;;16.80;11.97;;;2.50;99.90;;;;;;5014625;28;20179;-69
2021/11/06 05:42:14;;;;;;;13.23;10.00;;;2.40;99.90;;;;;;5014520;28;20199;-70
2021/11/06 05:44:40;;;;;;;15.33;10.83;;;2.40;99.90;;;;;;5013274;28;20722;-71
2021/11/06 05:47:06;;;;;;;14.60;10.63;;;2.30;99.90;;;;;;5014544;28;20838;-70
2021/11/06 05:49:32;;;;;;;13.80;10.93;;;2.30;99.90;;;;;;5014456;28;20755;-69
2021/11/06 05:51:57;;;;;;;14.33;10.50;;;2.30;99.90;;;;;;5014454;28;20521;-70
2021/11/06 05:54:23;;;;;;;25.40;10.70;;;2.30;99.90;;;;;;5014393;28;20206;-70
2021/11/06 05:56:48;;;;;;;60.77;12.43;;;2.40;99.90;;;;;;5014280;28;20173;-69
2021/11/06 05:59:14;;;;;;;24.17;11.93;;;2.40;99.90;;;;;;5013995;28;20202;-70
2021/11/06 06:01:40;;;;;;;73.77;14.13;;;2.40;99.90;;;;;;5012829;28;20222;-71
2021/11/06 06:04:05;;;;;;;76.20;14.83;;;2.40;99.90;;;;;;5014194;28;20559;-69
2021/11/06 06:06:31;;;;;;;48.07;13.30;;;2.40;99.90;;;;;;5014144;28;20645;-70
2021/11/06 06:08:56;;;;;;;36.37;13.37;;;2.40;99.90;;;;;;5013729;28;20199;-70
2021/11/06 06:11:22;;;;;;;35.57;12.37;;;2.40;99.90;;;;;;5014050;28;20684;-70
2021/11/06 06:13:48;;;;;;;48.80;11.90;;;2.50;99.90;;;;;;5013952;28;20249;-69
2021/11/06 06:16:13;;;;;;;42.70;12.23;;;2.50;99.90;;;;;;5013993;28;20644;-70
2021/11/06 06:18:39;;;;;;;23.07;11.97;;;2.50;99.90;;;;;;5013680;28;20599;-71
2021/11/06 06:21:05;;;;;;;76.77;14.47;;;2.50;99.90;;;;;;5013846;28;20278;-71
2021/11/06 06:23:30;;;;;;;45.03;10.63;;;2.50;99.90;;;;;;5013818;28;20548;-69
2021/11/06 06:25:56;;;;;;;61.13;13.00;;;2.50;99.90;;;;;;5014055;28;20676;-70
2021/11/06 06:28:22;;;;;;;27.37;11.43;;;2.40;99.90;;;;;;5012041;28;20619;-70
2021/11/06 06:30:47;;;;;;;25.20;10.00;;;2.40;99.90;;;;;;5028593;28;20206;-70
2021/11/06 06:33:13;;;;;;;35.17;10.17;;;2.50;99.90;;;;;;5013613;28;20629;-70
2021/11/06 06:35:38;;;;;;;16.40;10.10;;;2.60;99.90;;;;;;5013568;28;20226;-71
2021/11/06 06:38:04;;;;;;;24.00;10.07;;;2.60;99.90;;;;;;5013333;28;20171;-70
2021/11/06 06:40:30;;;;;;;18.07;9.53;;;2.50;99.90;;;;;;5012196;28;20183;-70
2021/11/06 06:42:56;;;;;;;18.67;10.50;;;2.40;99.90;;;;;;5013385;28;20198;-70
2021/11/06 06:45:22;;;;;;;18.83;11.50;;;2.30;99.90;;;;;;5013361;28;20923;-70
2021/11/06 06:47:48;;;;;;;15.57;10.23;;;2.20;99.90;;;;;;5013152;28;20422;-70
2021/11/06 06:50:14;;;;;;;13.47;9.77;;;2.20;99.90;;;;;;5013181;28;20457;-71
2021/11/06 06:52:41;;;;;;;15.83;11.40;;;2.20;99.90;;;;;;5013324;28;20972;-70
2021/11/06 06:55:07;;;;;;;16.97;10.03;;;2.10;99.90;;;;;;5028472;28;20417;-70
2021/11/06 06:57:33;;;;;;;13.80;9.97;;;2.20;99.90;;;;;;5012970;28;21061;-70
2021/11/06 06:59:58;;;;;;;18.20;11.40;;;2.20;99.90;;;;;;5013158;28;20536;-71
2021/11/06 07:02:24;;;;;;;12.30;9.90;;;2.20;99.90;;;;;;5013228;28;20241;-70
2021/11/06 07:04:49;;;;;;;10.73;8.50;;;2.10;99.90;;;;;;5013110;28;20254;-69
2021/11/06 07:07:15;;;;;;;11.77;9.73;;;2.10;99.90;;;;;;5012922;28;20178;-72
2021/11/06 07:09:40;;;;;;;12.97;9.30;;;2.10;99.90;;;;;;5012876;28;20258;-70
2021/11/06 07:12:07;;;;;;;14.27;9.97;;;2.10;99.90;;;;;;5010530;28;20203;-70
2021/11/06 07:14:33;;;;;;;12.00;10.00;;;2.20;99.90;;;;;;5003989;28;20226;-70
2021/11/06 07:16:59;;;;;;;11.77;10.20;;;2.30;99.90;;;;;;5011622;28;20417;-70
2021/11/06 07:19:25;;;;;;;14.17;9.50;;;2.40;99.90;;;;;;5012567;28;20186;-71
2021/11/06 07:21:50;;;;;;;12.73;9.83;;;2.50;99.90;;;;;;5012737;28;20210;-70
2021/11/06 07:24:16;;;;;;;14.40;10.93;;;2.60;99.90;;;;;;5012841;28;20422;-69
2021/11/06 07:26:41;;;;;;;14.27;10.90;;;2.70;99.90;;;;;;5012593;28;20202;-69
2021/11/06 07:29:07;;;;;;;16.30;10.50;;;2.90;99.90;;;;;;5012232;28;20231;-70
2021/11/06 07:31:32;;;;;;;22.60;11.70;;;2.70;99.90;;;;;;5012336;28;20203;-70
2021/11/06 07:33:58;;;;;;;16.20;10.83;;;2.70;99.90;;;;;;4994853;28;20630;-71
2021/11/06 07:36:25;;;;;;;17.10;9.97;;;2.90;99.90;;;;;;4992974;28;20254;-71
2021/11/06 07:38:53;;;;;;;19.07;11.37;;;2.90;99.90;;;;;;4992568;28;20168;-71
2021/11/06 07:41:19;;;;;;;18.40;11.10;;;3.00;99.90;;;;;;4990945;28;20443;-68
2021/11/06 07:43:45;;;;;;;19.47;11.47;;;3.00;99.90;;;;;;4992888;28;20874;-70
2021/11/06 07:46:11;;;;;;;16.83;10.93;;;2.80;99.90;;;;;;4992921;28;20497;-71
2021/11/06 07:48:36;;;;;;;17.87;11.03;;;2.90;99.90;;;;;;4992326;28;20171;-71
2021/11/06 07:51:03;;;;;;;13.73;10.53;;;3.20;99.90;;;;;;4992680;28;20219;-70
2021/11/06 07:53:28;;;;;;;21.80;15.03;;;3.50;99.90;;;;;;4992687;28;20171;-70
2021/11/06 07:55:54;;;;;;;17.90;12.67;;;3.90;99.90;;;;;;4992598;28;20418;-70
2021/11/06 07:58:20;;;;;;;15.70;10.03;;;4.10;99.90;;;;;;4992337;28;20164;-70
2021/11/06 08:00:45;;;;;;;12.03;10.00;;;4.10;99.90;;;;;;4992618;28;20187;-70
2021/11/06 08:03:11;;;;;;;14.90;9.70;;;4.00;99.90;;;;;;4992587;28;20168;-70
2021/11/06 08:05:37;;;;;;;12.97;10.00;;;4.00;99.90;;;;;;4992611;28;20531;-70
2021/11/06 08:08:03;;;;;;;15.70;9.60;;;3.90;99.90;;;;;;4992283;28;20455;-72
2021/11/06 08:10:29;;;;;;;16.90;11.03;;;3.80;99.90;;;;;;4992387;28;20183;-70
2021/11/06 08:12:59;;;;;;;18.40;10.13;;;3.80;99.90;;;;;;4992604;28;20470;-70
2021/11/06 08:15:25;;;;;;;20.10;11.00;;;3.70;99.90;;;;;;4993957;28;20418;-70
2021/11/06 08:17:53;;;;;;;20.87;11.50;;;3.70;99.90;;;;;;4992502;28;20427;-71
2021/11/06 08:20:18;;;;;;;23.53;12.67;;;3.70;99.90;;;;;;4992477;28;20182;-71
2021/11/06 08:22:44;;;;;;;18.47;10.77;;;3.70;99.90;;;;;;4992472;28;20427;-71
2021/11/06 08:25:15;;;;;;;14.80;11.50;;;3.90;99.90;;;;;;4991121;28;20548;-71
2021/11/06 08:27:40;;;;;;;33.00;12.33;;;4.00;99.90;;;;;;4992146;28;20179;-72
2021/11/06 08:30:06;;;;;;;24.03;10.83;;;4.30;99.90;;;;;;4992306;28;20474;-71
2021/11/06 08:32:32;;;;;;;34.50;9.00;;;4.60;99.90;;;;;;4992282;28;20214;-71
2021/11/06 08:34:57;;;;;;;28.50;10.90;;;4.60;99.90;;;;;;4992656;28;20262;-70
2021/11/06 08:37:23;;;;;;;47.83;20.07;;;4.60;99.90;;;;;;4992066;28;20246;-72
2021/11/06 08:39:49;;;;;;;30.97;12.57;;;4.40;99.90;;;;;;4992245;28;20270;-71
2021/11/06 08:42:14;;;;;;;80.23;12.80;;;4.50;99.90;;;;;;4992210;28;20196;-71
2021/11/06 08:44:40;;;;;;;31.23;10.70;;;4.60;99.90;;;;;;4992314;28;20629;-70
2021/11/06 08:47:06;;;;;;;24.57;8.70;;;4.50;99.90;;;;;;4992287;28;20188;-71
2021/11/06 08:49:31;;;;;;;17.27;8.70;;;4.40;99.90;;;;;;4991885;28;20260;-70
2021/11/06 08:51:57;;;;;;;18.60;8.50;;;4.20;99.90;;;;;;4994068;28;20254;-71
2021/11/06 08:54:23;;;;;;;20.97;9.43;;;4.50;99.90;;;;;;4995961;28;20190;-72
2021/11/06 08:56:49;;;;;;;16.67;10.43;;;4.70;99.90;;;;;;4999019;28;20245;-70
2021/11/06 08:59:16;;;;;;;10.97;7.03;;;4.80;99.90;;;;;;5011591;28;20437;-70
2021/11/06 09:01:43;;;;;;;14.83;7.87;;;4.80;99.90;;;;;;5010287;28;20207;-71
2021/11/06 09:04:09;;;;;;;19.97;9.70;;;4.80;99.90;;;;;;4993857;28;20794;-70
2021/11/06 09:06:34;;;;;;;11.00;8.50;;;5.00;99.90;;;;;;4994456;28;20419;-70
2021/11/06 09:09:06;;;;;;;16.50;8.03;;;5.20;99.90;;;;;;4994688;28;20233;-70
2021/11/06 09:11:32;;;;;;;11.27;8.40;;;5.30;99.90;;;;;;4995480;28;20239;-71
2021/11/06 09:13:59;;;;;;;13.50;9.07;;;5.30;99.90;;;;;;4995474;28;20449;-70
2021/11/06 09:16:24;;;;;;;16.07;10.17;;;5.40;99.90;;;;;;4995562;28;20164;-70
2021/11/06 09:18:51;;;;;;;13.90;9.33;;;5.50;99.90;;;;;;4995250;28;20955;-70
2021/11/06 09:21:20;;;;;;;10.93;8.03;;;6.00;99.90;;;;;;4995316;28;20270;-70
2021/11/06 09:23:48;;;;;;;16.10;8.33;;;6.50;99.90;;;;;;4994077;28;20538;-70
2021/11/06 09:26:15;;;;;;;12.93;7.80;;;6.80;99.90;;;;;;4995264;28;20465;-70
2021/11/06 09:28:42;;;;;;;11.33;8.40;;;7.00;99.90;;;;;;4994983;28;20434;-69
2021/11/06 09:31:09;;;;;;;11.80;8.23;;;7.00;99.90;;;;;;4995089;28;20508;-70
2021/11/06 09:33:34;;;;;;;12.27;8.90;;;7.80;99.90;;;;;;4993908;28;20423;-70
2021/11/06 09:36:00;;;;;;;10.50;8.50;;;7.90;99.90;;;;;;4995065;28;20432;-71
2021/11/06 09:38:26;;;;;;;10.40;8.60;;;8.40;99.90;;;;;;4994805;28;20229;-69
2021/11/06 09:40:51;;;;;;;9.90;8.07;;;8.60;99.90;;;;;;4994968;28;20964;-69
2021/11/06 09:43:17;;;;;;;11.80;8.33;;;9.20;99.90;;;;;;4995020;28;20179;-70
2021/11/06 09:45:43;;;;;;;8.53;7.13;;;9.40;99.90;;;;;;4994986;28;20174;-70
2021/11/06 09:48:10;;;;;;;9.30;7.60;;;9.40;99.90;;;;;;4994743;28;20178;-70
2021/11/06 09:50:35;;;;;;;9.37;8.30;;;9.30;99.90;;;;;;4994647;28;20540;-70
2021/11/06 09:53:01;;;;;;;9.90;8.80;;;9.60;99.90;;;;;;4994899;28;21058;-70
2021/11/06 09:55:27;;;;;;;9.57;8.57;;;10.30;99.90;;;;;;4994761;28;20172;-69
2021/11/06 09:57:53;;;;;;;10.67;8.60;;;9.60;99.90;;;;;;4994462;28;20259;-70
2021/11/06 10:00:20;;;;;;;10.80;8.87;;;8.80;99.90;;;;;;4994656;28;20183;-71
2021/11/06 10:02:48;;;;;;;14.73;10.23;;;8.50;99.90;;;;;;4994299;28;20794;-70
2021/11/06 10:05:15;;;;;;;11.33;10.17;;;8.50;99.90;;;;;;4994622;28;20437;-69
2021/11/06 10:07:42;;;;;;;8.83;7.90;;;8.60;99.90;;;;;;4994258;28;20506;-70
2021/11/06 10:10:16;;;;;;;10.10;8.90;;;9.20;99.90;;;;;;4994463;28;20465;-70
2021/11/06 10:12:53;;;;;;;29.70;8.60;;;9.30;99.90;;;;;;4994416;28;20419;-71
2021/11/06 10:15:22;;;;;;;11.27;8.47;;;9.50;99.90;;;;;;4994175;28;20422;-70
2021/11/06 10:17:49;;;;;;;12.37;9.50;;;9.70;99.90;;;;;;4993991;28;20517;-70
2021/11/06 10:20:30;;;;;;;12.37;9.57;;;9.50;99.90;;;;;;4994282;28;20427;-70
2021/11/06 10:22:59;;;;;;;14.07;9.23;;;9.90;99.90;;;;;;4994357;28;20521;-71
2021/11/06 10:25:25;;;;;;;12.80;11.47;;;10.00;99.90;;;;;;4994180;28;20411;-69
2021/11/06 10:27:59;;;;;;;14.00;10.80;;;10.10;99.90;;;;;;4993851;28;20418;-70
2021/11/06 10:30:30;;;;;;;14.20;11.47;;;9.70;99.90;;;;;;4993872;28;20465;-71
2021/11/06 10:33:01;;;;;;;18.87;12.13;;;9.50;99.90;;;;;;4994637;28;20485;-70
2021/11/06 10:35:31;;;;;;;19.10;15.30;;;9.60;99.90;;;;;;4994081;28;20423;-71
2021/11/06 10:38:14;;;;;;;14.77;13.17;;;9.50;99.90;;;;;;4994070;28;21000;-71
2021/11/06 10:40:44;;;;;;;17.37;12.33;;;9.50;99.90;;;;;;4993864;28;20461;-71
2021/11/06 10:43:13;;;;;;;14.43;12.57;;;9.50;99.90;;;;;;4993850;28;20461;-69
2021/11/06 10:45:47;;;;;;;16.20;13.50;;;9.70;99.90;;;;;;4993844;28;20465;-71
2021/11/06 10:48:16;;;;;;;16.87;13.73;;;10.90;99.90;;;;;;4993457;28;20430;-71
2021/11/06 10:50:44;;;;;;;16.17;14.30;;;12.20;99.90;;;;;;4993673;28;20465;-70
2021/11/06 10:53:12;;;;;;;16.63;14.07;;;11.70;99.90;;;;;;4993648;28;20515;-70
2021/11/06 10:55:43;;;;;;;19.53;15.40;;;11.60;99.90;;;;;;4993687;28;20415;-70
2021/11/06 10:58:23;;;;;;;19.03;15.50;;;12.10;99.90;;;;;;4993380;28;20411;-71
2021/11/06 11:00:52;;;;;;;20.13;17.30;;;12.40;99.90;;;;;;4993477;28;20445;-71
2021/11/06 11:03:31;;;;;;;19.67;16.80;;;12.20;99.90;;;;;;4993542;28;20796;-70
2021/11/06 11:05:59;;;;;;;18.87;15.40;;;12.10;99.90;;;;;;4993603;28;20424;-71
2021/11/06 11:08:25;;;;;;;21.50;17.50;;;11.30;99.90;;;;;;4993079;28;20458;-70
2021/11/06 11:10:51;;;;;;;21.37;16.70;;;11.10;99.90;;;;;;4993231;28;20490;-69
2021/11/06 11:13:20;;;;;;;18.33;15.53;;;11.20;99.90;;;;;;4993371;28;20200;-70
2021/11/06 11:15:49;;;;;;;22.00;17.30;;;10.30;99.90;;;;;;4992188;28;20422;-70
2021/11/06 11:18:34;;;;;;;24.10;16.43;;;10.00;99.90;;;;;;4993012;28;20434;-71
2021/11/06 11:21:25;;;;;;;22.33;16.23;;;10.10;99.90;;;;;;4993122;28;20446;-71
2021/11/06 11:23:57;;;;;;;18.90;16.13;;;11.30;99.90;;;;;;4993214;28;20526;-71
2021/11/06 11:26:29;;;;;;;23.50;18.47;;;12.60;99.90;;;;;;4993171;28;20990;-70
2021/11/06 11:28:55;;;;;;;20.90;17.67;;;12.80;99.90;;;;;;4992764;28;20971;-71
2021/11/06 11:31:22;;;;;;;19.33;16.30;;;12.70;99.90;;;;;;4992904;28;20454;-71
2021/11/06 11:33:49;;;;;;;23.50;18.10;;;14.10;99.90;;;;;;4992984;28;20766;-71
2021/11/06 11:36:17;;;;;;;19.40;17.33;;;16.30;99.90;;;;;;4992981;28;20956;-67
2021/11/06 11:38:44;;;;;;;19.53;17.50;;;17.30;99.90;;;;;;4992520;28;20935;-70
2021/11/06 11:41:41;;;;;;;20.80;18.33;;;19.60;99.50;;;;;;4991606;28;20478;-68
2021/11/06 11:44:42;;;;;;;19.87;17.80;;;21.20;94.70;;;;;;4992945;28;20418;-69
2021/11/06 11:47:14;;;;;;;21.00;18.80;;;23.00;90.30;;;;;;4992796;28;20440;-68
2021/11/06 11:49:44;;;;;;;22.23;19.70;;;23.80;82.00;;;;;;4992608;28;20549;-68
2021/11/06 11:52:32;;;;;;;20.53;18.43;;;24.50;76.80;;;;;;4992646;28;20434;-69
2021/11/06 11:55:12;;;;;;;20.40;18.43;;;25.60;69.90;;;;;;4992746;28;20866;-68
2021/11/06 11:57:40;;;;;;;21.97;19.80;;;26.40;66.50;;;;;;4992459;28;20450;-71
2021/11/06 12:00:38;;;;;;;20.73;19.00;;;27.30;60.90;;;;;;4992696;28;20454;-69
2021/11/06 12:03:05;;;;;;;22.10;20.00;;;27.70;56.80;;;;;;4984418;28;20434;-69
2021/11/06 12:05:36;;;;;;;20.47;18.67;;;27.90;55.60;;;;;;4992667;28;20419;-69
2021/11/06 12:08:10;;;;;;;21.30;19.37;;;29.10;53.30;;;;;;4992302;28;20458;-68
2021/11/06 12:10:38;;;;;;;22.50;20.60;;;29.80;50.70;;;;;;4992482;28;20457;-69
2021/11/06 12:13:04;;;;;;;23.53;21.53;;;30.60;48.30;;;;;;4992574;28;20784;-70
2021/11/06 12:15:56;;;;;;;23.03;21.07;;;30.90;46.90;;;;;;4992271;28;20450;-68
2021/11/06 12:18:50;;;;;;;23.13;21.00;;;31.10;45.90;;;;;;4986753;28;20426;-69
2021/11/06 12:21:20;;;;;;;22.30;20.40;;;30.60;44.80;;;;;;4988360;28;20474;-69
2021/11/06 12:24:05;;;;;;;22.37;20.30;;;30.60;44.80;;;;;;4992524;28;20437;-68
2021/11/06 12:26:32;;;;;;;23.43;21.43;;;30.50;44.70;;;;;;4992436;28;20522;-68
2021/11/06 12:29:10;;;;;;;22.20;20.40;;;30.50;44.40;;;;;;4996148;28;20423;-68
2021/11/06 12:31:38;;;;;;;20.73;18.97;;;31.10;43.40;;;;;;4996114;28;20521;-68
2021/11/06 12:34:06;;;;;;;22.33;20.53;;;31.60;42.80;;;;;;4996647;28;20959;-69
2021/11/06 12:36:39;;;;;;;22.67;20.77;;;29.50;42.90;;;;;;4996193;28;20765;-69
2021/11/06 12:39:04;;;;;;;19.13;17.33;;;29.30;44.30;;;;;;4996072;28;21006;-69